Time;durP1;ratioP1;P1;durP2;ratioP2;P2;SDS_P1;SDS_P2;PMS_P1;PMS_P2;Temp;Humidity;BMP_temperature;BMP_pressure;BME280_temperature;BME280_humidity;BME280_pressure;Samples;Min_cycle;Max_cycle;Signal;HPM_P1;HPM_P2
2022/05/02 00:01:50;;;;;;;15.70;14.20;;;7.00;1.00;;;;;;5078641;28;20514;-58
2022/05/02 00:04:22;;;;;;;16.97;15.20;;;6.90;1.00;;;;;;5078749;28;20914;-57
2022/05/02 00:06:49;;;;;;;17.30;14.30;;;6.90;1.00;;;;;;5078587;28;20499;-58
2022/05/02 00:09:22;;;;;;;15.83;14.23;;;6.80;1.00;;;;;;5078918;28;20461;-57
2022/05/02 00:11:58;;;;;;;15.23;13.73;;;6.80;1.00;;;;;;5078892;28;20512;-57
2022/05/02 00:14:27;;;;;;;17.07;14.00;;;6.80;1.00;;;;;;5077664;28;20778;-58
2022/05/02 00:16:55;;;;;;;15.57;14.07;;;6.80;1.00;;;;;;5078658;28;20458;-56
2022/05/02 00:19:22;;;;;;;15.63;13.97;;;6.80;1.00;;;;;;5078693;28;20980;-57
2022/05/02 00:21:50;;;;;;;16.30;14.70;;;6.90;1.00;;;;;;5078210;28;20462;-55
2022/05/02 00:24:24;;;;;;;15.20;13.60;;;6.80;1.00;;;;;;5078514;28;20562;-56
2022/05/02 00:26:52;;;;;;;15.77;14.07;;;6.80;1.00;;;;;;5078275;28;20539;-57
2022/05/02 00:29:19;;;;;;;16.63;13.53;;;6.80;1.00;;;;;;5078669;28;20551;-57
2022/05/02 00:31:51;;;;;;;14.43;12.73;;;6.80;1.00;;;;;;5077886;28;20497;-56
2022/05/02 00:34:22;;;;;;;16.30;14.60;;;6.80;1.00;;;;;;5078521;28;20465;-56
2022/05/02 00:36:58;;;;;;;16.40;14.80;;;6.80;1.00;;;;;;5077848;28;20481;-55
2022/05/02 00:39:30;;;;;;;17.30;15.53;;;6.80;1.00;;;;;;5078220;28;20507;-57
2022/05/02 00:41:57;;;;;;;19.30;15.90;;;6.80;1.00;;;;;;5077616;28;20465;-56
2022/05/02 00:44:27;;;;;;;16.10;14.50;;;6.70;1.00;;;;;;5078491;28;20810;-56
2022/05/02 00:46:54;;;;;;;16.97;15.07;;;6.70;1.00;;;;;;5077977;28;20578;-54
2022/05/02 00:49:35;;;;;;;15.80;13.83;;;6.60;1.00;;;;;;5077337;28;20494;-56
2022/05/02 00:52:01;;;;;;;16.07;14.53;;;6.60;1.00;;;;;;5062217;28;20703;-55
2022/05/02 00:54:30;;;;;;;19.57;14.80;;;6.60;1.00;;;;;;5077776;28;20851;-56
2022/05/02 00:57:02;;;;;;;20.80;15.00;;;6.60;1.00;;;;;;5077923;28;20504;-57
2022/05/02 00:59:32;;;;;;;16.23;14.50;;;6.60;1.00;;;;;;5077520;28;20812;-56
2022/05/02 01:02:01;;;;;;;15.93;14.30;;;6.60;1.00;;;;;;5077629;28;20489;-57
2022/05/02 01:04:30;;;;;;;18.83;14.50;;;6.50;1.00;;;;;;5077848;28;20504;-55
2022/05/02 01:07:09;;;;;;;16.90;14.57;;;6.50;1.00;;;;;;5077534;28;20948;-57
2022/05/02 01:09:41;;;;;;;20.87;14.97;;;6.50;1.00;;;;;;5077185;28;20457;-55
2022/05/02 01:12:14;;;;;;;16.33;14.63;;;6.50;1.00;;;;;;5077463;28;20481;-57
2022/05/02 01:14:42;;;;;;;20.60;15.50;;;6.60;1.00;;;;;;5077125;28;20511;-56
2022/05/02 01:17:10;;;;;;;22.27;15.40;;;6.60;1.00;;;;;;5077672;28;20556;-56
2022/05/02 01:19:43;;;;;;;17.90;15.07;;;6.60;1.00;;;;;;5077150;28;20485;-56
2022/05/02 01:22:18;;;;;;;15.57;13.90;;;6.60;1.00;;;;;;5078102;28;20433;-56
2022/05/02 01:24:52;;;;;;;18.30;15.40;;;6.60;1.00;;;;;;5077226;28;20553;-56
2022/05/02 01:27:19;;;;;;;19.07;15.27;;;6.60;1.00;;;;;;5077519;28;20587;-56
2022/05/02 01:29:46;;;;;;;16.67;14.97;;;6.60;1.00;;;;;;5076558;28;20488;-57
2022/05/02 01:32:17;;;;;;;18.00;16.10;;;6.70;1.00;;;;;;5077364;28;20515;-57
2022/05/02 01:34:47;;;;;;;15.80;14.20;;;6.70;1.00;;;;;;5076791;28;20491;-57
2022/05/02 01:37:23;;;;;;;16.30;14.60;;;6.70;1.00;;;;;;5076527;28;20466;-57
2022/05/02 01:39:56;;;;;;;16.67;14.87;;;6.70;1.00;;;;;;5077298;28;20469;-57
2022/05/02 01:42:25;;;;;;;17.60;15.80;;;6.70;1.00;;;;;;5074570;28;20564;-56
2022/05/02 01:44:54;;;;;;;16.10;14.50;;;6.70;1.00;;;;;;5077180;28;20465;-56
2022/05/02 01:47:33;;;;;;;15.70;14.00;;;6.70;1.00;;;;;;5076321;28;20521;-56
2022/05/02 01:50:00;;;;;;;15.50;13.77;;;6.70;1.00;;;;;;5076923;28;20556;-57
2022/05/02 01:52:35;;;;;;;16.73;13.80;;;6.90;1.00;;;;;;5077355;28;20500;-57
2022/05/02 01:55:05;;;;;;;19.03;14.70;;;7.10;1.00;;;;;;5076389;28;20974;-56
2022/05/02 01:57:36;;;;;;;17.73;15.67;;;7.10;1.00;;;;;;5075572;28;20465;-57
2022/05/02 02:00:04;;;;;;;16.20;14.50;;;7.10;1.00;;;;;;5077382;28;20471;-57
2022/05/02 02:02:32;;;;;;;16.00;14.40;;;7.10;1.00;;;;;;5077309;28;20508;-57
2022/05/02 02:07:52;;;;;;;17.83;13.70;;;7.10;1.00;;;;;;5076119;28;20589;-57
2022/05/02 02:10:19;;;;;;;16.87;15.27;;;7.10;1.00;;;;;;5077173;28;20523;-57
2022/05/02 02:12:46;;;;;;;18.37;14.40;;;7.00;1.00;;;;;;5076153;28;20593;-56
2022/05/02 02:15:14;;;;;;;20.47;14.60;;;6.90;1.00;;;;;;5077124;28;20488;-58
2022/05/02 02:17:47;;;;;;;16.20;14.47;;;6.90;1.00;;;;;;5076064;28;20458;-57
2022/05/02 02:20:24;;;;;;;16.97;15.03;;;6.90;1.00;;;;;;5077435;28;20555;-57
2022/05/02 02:22:53;;;;;;;15.67;13.83;;;6.90;1.00;;;;;;5076812;28;20478;-58
2022/05/02 02:25:22;;;;;;;17.37;15.57;;;7.00;1.00;;;;;;5077156;28;20501;-57
2022/05/02 02:27:49;;;;;;;15.10;13.37;;;6.90;1.00;;;;;;5076746;28;20524;-57
2022/05/02 02:30:21;;;;;;;18.90;15.60;;;6.80;1.00;;;;;;5077428;28;20492;-57
2022/05/02 02:32:48;;;;;;;25.90;14.30;;;6.80;1.00;;;;;;5076465;28;20504;-57
2022/05/02 02:35:20;;;;;;;17.33;14.17;;;6.90;1.00;;;;;;5076775;28;20486;-57
2022/05/02 02:37:53;;;;;;;15.93;14.20;;;6.90;1.00;;;;;;5076879;28;20527;-58
2022/05/02 02:40:23;;;;;;;15.57;13.87;;;6.80;1.00;;;;;;5077202;28;20496;-58
2022/05/02 02:42:59;;;;;;;16.27;14.67;;;6.80;1.00;;;;;;5076635;28;20461;-56
2022/05/02 02:45:29;;;;;;;17.13;15.07;;;6.80;1.00;;;;;;5076548;28;20472;-57
2022/05/02 02:47:58;;;;;;;15.73;13.90;;;6.70;1.00;;;;;;5076958;28;20906;-56
2022/05/02 02:50:30;;;;;;;17.67;14.07;;;6.60;1.00;;;;;;5076772;28;20905;-56
2022/05/02 02:52:59;;;;;;;17.53;14.67;;;6.60;1.00;;;;;;5076776;28;20812;-57
2022/05/02 02:55:27;;;;;;;16.90;14.70;;;6.60;1.00;;;;;;5076759;28;20457;-55
2022/05/02 02:58:02;;;;;;;17.27;14.80;;;6.60;1.00;;;;;;5076675;28;20491;-57
2022/05/02 03:00:33;;;;;;;15.13;13.53;;;6.60;1.00;;;;;;5076749;28;20468;-57
2022/05/02 03:03:07;;;;;;;21.97;16.30;;;6.50;1.00;;;;;;5079365;28;20901;-56
2022/05/02 03:08:21;;;;;;;20.87;15.50;;;6.40;1.00;;;;;;5079871;28;20916;-55
2022/05/02 03:10:50;;;;;;;20.30;17.10;;;6.40;1.00;;;;;;5079788;28;20559;-57
2022/05/02 03:13:17;;;;;;;17.03;14.87;;;6.50;1.00;;;;;;5079291;28;20521;-57
2022/05/02 03:15:44;;;;;;;19.47;16.40;;;6.40;1.00;;;;;;5079150;28;20493;-54
2022/05/02 03:18:13;;;;;;;19.10;15.43;;;6.40;1.00;;;;;;5080055;28;20906;-57
2022/05/02 03:20:40;;;;;;;16.63;14.90;;;6.40;1.00;;;;;;5079716;28;20493;-57
2022/05/02 03:23:10;;;;;;;19.27;15.97;;;6.40;1.00;;;;;;5079889;28;20912;-57
2022/05/02 03:25:40;;;;;;;19.37;16.37;;;6.40;1.00;;;;;;5079183;28;20493;-57
2022/05/02 03:28:08;;;;;;;18.97;15.83;;;6.40;1.00;;;;;;5080159;28;20531;-56
2022/05/02 03:30:39;;;;;;;17.70;15.70;;;6.40;1.00;;;;;;5079661;28;20585;-54
2022/05/02 03:33:09;;;;;;;16.50;14.90;;;6.40;1.00;;;;;;5078941;28;20510;-56
2022/05/02 03:35:39;;;;;;;17.23;15.43;;;6.40;22.40;;;;;;5079209;28;20897;-57
2022/05/02 03:38:06;;;;;;;19.80;16.47;;;6.40;39.20;;;;;;5079821;28;20515;-56
2022/05/02 03:40:33;;;;;;;20.07;17.03;;;6.40;33.40;;;;;;5079258;28;20501;-56
2022/05/02 03:43:01;;;;;;;23.00;18.10;;;6.40;24.70;;;;;;5079486;28;20466;-56
2022/05/02 03:45:29;;;;;;;25.53;18.10;;;6.50;38.10;;;;;;5078826;28;20495;-56
2022/05/02 03:47:59;;;;;;;22.00;16.40;;;6.40;12.50;;;;;;5078908;28;20964;-57
2022/05/02 03:50:36;;;;;;;19.90;17.23;;;6.50;28.40;;;;;;5078679;28;20457;-55
2022/05/02 03:53:08;;;;;;;21.10;15.63;;;6.50;5.60;;;;;;5078887;28;20476;-57
2022/05/02 03:55:37;;;;;;;25.50;17.73;;;6.50;1.00;;;;;;5077803;28;20472;-56
2022/05/02 03:58:06;;;;;;;23.40;16.20;;;6.50;1.00;;;;;;5077955;28;20523;-55
2022/05/02 04:00:34;;;;;;;26.30;17.53;;;6.50;1.00;;;;;;5078123;28;20535;-56
2022/05/02 04:03:04;;;;;;;22.07;17.40;;;6.50;1.00;;;;;;5079078;28;20822;-56
2022/05/02 04:05:35;;;;;;;29.23;16.77;;;6.50;1.00;;;;;;5079230;28;20504;-56
2022/05/02 04:08:02;;;;;;;22.57;17.63;;;6.50;1.00;;;;;;5077683;28;20538;-57
2022/05/02 04:10:29;;;;;;;26.40;17.00;;;6.50;1.00;;;;;;5077938;28;20457;-57
2022/05/02 04:12:57;;;;;;;21.67;17.90;;;6.50;1.00;;;;;;5075470;28;20554;-57
2022/05/02 04:15:27;;;;;;;21.63;16.63;;;6.50;12.50;;;;;;5076553;28;20753;-56
2022/05/02 04:17:58;;;;;;;27.20;17.00;;;6.50;46.90;;;;;;5077581;28;20454;-57
2022/05/02 04:20:25;;;;;;;27.60;19.17;;;6.50;90.70;;;;;;5077602;28;20944;-57
2022/05/02 04:22:58;;;;;;;24.63;18.50;;;6.60;99.90;;;;;;5077186;28;20543;-57
2022/05/02 04:25:28;;;;;;;22.80;17.33;;;6.60;99.90;;;;;;5077251;28;20504;-56
2022/05/02 04:28:04;;;;;;;26.27;18.23;;;6.60;94.50;;;;;;5076100;28;20478;-56
2022/05/02 04:30:32;;;;;;;23.30;17.73;;;6.60;99.90;;;;;;5076126;28;20453;-57
2022/05/02 04:33:04;;;;;;;23.73;17.57;;;6.70;94.10;;;;;;5076861;28;20508;-56
2022/05/02 04:35:32;;;;;;;20.73;16.93;;;6.70;99.90;;;;;;5057653;28;20469;-57
2022/05/02 04:38:06;;;;;;;28.70;20.50;;;6.80;99.90;;;;;;5067211;28;20489;-56
2022/05/02 04:40:33;;;;;;;23.53;18.43;;;6.90;99.90;;;;;;5078582;28;20512;-57
2022/05/02 04:43:05;;;;;;;26.70;19.17;;;6.90;99.90;;;;;;5077484;28;20823;-57
2022/05/02 04:45:34;;;;;;;24.00;18.30;;;7.00;99.90;;;;;;5077611;28;20465;-56
2022/05/02 04:48:03;;;;;;;25.97;18.33;;;7.10;99.90;;;;;;5077141;28;20573;-56
2022/05/02 04:50:33;;;;;;;22.63;18.17;;;7.20;99.90;;;;;;5058070;28;20827;-57
2022/05/02 04:53:04;;;;;;;26.43;17.90;;;7.30;86.70;;;;;;5063316;28;20807;-56
2022/05/02 04:55:39;;;;;;;26.23;18.67;;;7.30;35.90;;;;;;5076187;28;20493;-58
2022/05/02 04:58:06;;;;;;;23.70;19.13;;;7.40;15.70;;;;;;5076756;28;20465;-56
2022/05/02 05:00:35;;;;;;;25.23;19.13;;;7.40;1.00;;;;;;5075373;28;20846;-55
2022/05/02 05:03:04;;;;;;;23.63;18.37;;;7.40;1.00;;;;;;5076583;28;20461;-57
2022/05/02 05:05:31;;;;;;;20.73;18.53;;;7.50;1.00;;;;;;5076071;28;20481;-55
2022/05/02 05:08:04;;;;;;;21.97;17.73;;;7.60;1.00;;;;;;5076000;28;20485;-58
2022/05/02 05:10:33;;;;;;;21.43;19.10;;;7.70;1.00;;;;;;5076574;28;20458;-55
2022/05/02 05:13:06;;;;;;;23.30;20.30;;;7.70;1.00;;;;;;5076180;28;20492;-57
2022/05/02 05:18:52;;;;;;;24.70;18.87;;;7.80;1.00;;;;;;5056666;28;20438;-57
2022/05/02 05:21:35;;;;;;;23.97;19.57;;;7.90;1.00;;;;;;5072306;28;20488;-57
2022/05/02 05:24:41;;;;;;;21.13;18.77;;;8.00;1.00;;;;;;5076287;28;20552;-56
2022/05/02 05:27:24;;;;;;;20.97;18.67;;;8.10;1.00;;;;;;5075754;28;20499;-54
2022/05/02 05:30:05;;;;;;;22.87;19.70;;;8.20;1.00;;;;;;5075168;28;20812;-57
2022/05/02 05:32:45;;;;;;;23.87;20.00;;;8.30;1.00;;;;;;5057350;28;20481;-57
2022/05/02 05:35:18;;;;;;;20.50;17.90;;;8.30;1.00;;;;;;5064857;28;20483;-58
2022/05/02 05:38:08;;;;;;;23.40;20.87;;;8.30;1.00;;;;;;5076850;28;20500;-58
2022/05/02 05:40:37;;;;;;;24.20;19.23;;;8.40;1.00;;;;;;5077316;28;20465;-58
2022/05/02 05:43:37;;;;;;;22.47;19.27;;;8.50;1.00;;;;;;5075983;28;20465;-58
2022/05/02 05:46:39;;;;;;;23.80;19.33;;;8.60;1.00;;;;;;5066774;28;20761;-58
2022/05/02 05:49:16;;;;;;;22.73;20.37;;;8.80;1.00;;;;;;5070337;28;20534;-59
2022/05/02 05:51:49;;;;;;;22.57;20.17;;;8.90;1.00;;;;;;5074527;28;20461;-58
2022/05/02 05:54:31;;;;;;;27.13;19.77;;;9.10;1.00;;;;;;5072401;28;20947;-58
2022/05/02 05:57:08;;;;;;;24.20;20.10;;;9.20;1.00;;;;;;5073988;28;20904;-59
2022/05/02 05:59:49;;;;;;;21.23;19.10;;;9.40;1.00;;;;;;5074181;28;20915;-59
2022/05/02 06:02:21;;;;;;;21.93;18.80;;;9.60;1.00;;;;;;5075822;28;20457;-59
2022/05/02 06:04:52;;;;;;;26.37;18.23;;;9.70;1.00;;;;;;5076661;28;20481;-58
2022/05/02 06:07:21;;;;;;;20.50;18.40;;;9.90;1.00;;;;;;5073385;28;20470;-59
2022/05/02 06:09:53;;;;;;;20.63;18.07;;;10.00;1.00;;;;;;5071293;28;20523;-59
2022/05/02 06:12:22;;;;;;;22.00;17.33;;;10.20;1.00;;;;;;5075406;28;20465;-59
2022/05/02 06:20:34;;;;;;;19.60;16.43;;;10.60;99.90;;;;;;5056289;28;20473;-60
2022/05/02 06:23:05;;;;;;;17.87;15.93;;;10.70;99.90;;;;;;5056239;28;20470;-59
2022/05/02 06:25:47;;;;;;;17.50;14.90;;;10.80;99.90;;;;;;5055087;28;20493;-58
2022/05/02 06:28:29;;;;;;;17.37;15.67;;;11.50;99.90;;;;;;5056422;28;20497;-59
2022/05/02 06:31:00;;;;;;;16.90;15.20;;;12.10;99.90;;;;;;5056498;28;20683;-59
2022/05/02 06:33:36;;;;;;;15.57;14.17;;;12.60;99.90;;;;;;5056882;28;20470;-59
2022/05/02 06:36:39;;;;;;;21.53;14.93;;;12.70;99.90;;;;;;5056107;28;20466;-58
2022/05/02 06:39:15;;;;;;;16.63;15.03;;;12.80;99.90;;;;;;5058653;28;20739;-59
2022/05/02 06:41:57;;;;;;;19.20;15.57;;;12.70;99.90;;;;;;5059456;28;20476;-59
2022/05/02 06:44:36;;;;;;;16.20;14.60;;;12.90;99.90;;;;;;5058768;28;20758;-58
2022/05/02 06:47:17;;;;;;;16.97;15.17;;;12.80;99.90;;;;;;5059772;28;20874;-59
2022/05/02 06:49:52;;;;;;;16.60;14.03;;;12.60;99.90;;;;;;5078610;28;20485;-59
2022/05/02 06:52:24;;;;;;;14.87;13.47;;;12.40;99.90;;;;;;5079113;28;20472;-59
2022/05/02 06:55:05;;;;;;;15.93;14.40;;;12.30;99.90;;;;;;5080010;28;20812;-59
2022/05/02 06:57:47;;;;;;;14.67;13.20;;;12.30;99.90;;;;;;5079105;28;20780;-59
2022/05/02 07:00:21;;;;;;;14.43;13.03;;;12.40;99.90;;;;;;5079659;28;20461;-59
2022/05/02 07:03:30;;;;;;;13.20;12.00;;;12.60;99.90;;;;;;5079516;28;20563;-59
2022/05/02 07:06:12;;;;;;;13.33;12.03;;;12.60;99.90;;;;;;5079387;28;20851;-60
2022/05/02 07:08:51;;;;;;;14.43;12.97;;;12.80;99.90;;;;;;5078850;28;20553;-59
2022/05/02 07:11:21;;;;;;;13.83;12.10;;;12.90;99.90;;;;;;5080026;28;20522;-59
2022/05/02 07:14:05;;;;;;;13.90;12.60;;;13.00;99.90;;;;;;5078988;28;20975;-59
2022/05/02 07:16:34;;;;;;;13.20;12.00;;;13.10;99.90;;;;;;5078811;28;20498;-59
2022/05/02 07:19:49;;;;;;;15.10;13.60;;;13.60;99.90;;;;;;5072058;28;20560;-59
2022/05/02 07:22:23;;;;;;;14.10;12.80;;;14.20;99.90;;;;;;5054810;28;20497;-60
2022/05/02 07:24:59;;;;;;;14.90;13.43;;;14.90;99.90;;;;;;5058129;28;20549;-60
2022/05/02 07:27:52;;;;;;;13.40;12.07;;;15.40;99.90;;;;;;5073173;28;20582;-60
2022/05/02 07:30:23;;;;;;;14.50;13.00;;;15.20;99.90;;;;;;5079609;28;20485;-60
2022/05/02 07:32:53;;;;;;;14.53;13.20;;;15.70;99.90;;;;;;5078605;28;20823;-60
2022/05/02 07:35:21;;;;;;;13.03;11.83;;;16.00;99.90;;;;;;5078327;28;20588;-60
2022/05/02 07:37:56;;;;;;;13.13;11.87;;;16.10;99.90;;;;;;5078483;28;20461;-60
2022/05/02 07:40:31;;;;;;;13.13;11.83;;;16.50;99.90;;;;;;5079363;28;20453;-60
2022/05/02 07:42:59;;;;;;;15.23;13.60;;;16.70;99.90;;;;;;5079499;28;20511;-60
2022/05/02 07:45:29;;;;;;;13.47;12.17;;;16.90;99.90;;;;;;5079443;28;20538;-60
2022/05/02 07:48:03;;;;;;;13.87;12.57;;;17.00;99.90;;;;;;5078366;28;20461;-60
2022/05/02 07:50:45;;;;;;;14.43;12.23;;;17.10;99.90;;;;;;5077025;28;20456;-60
2022/05/02 07:53:13;;;;;;;14.47;12.97;;;17.30;99.90;;;;;;5079501;28;20481;-60
2022/05/02 07:55:46;;;;;;;12.70;11.50;;;17.50;99.90;;;;;;5078687;28;20873;-60
2022/05/02 07:58:15;;;;;;;13.27;12.27;;;17.50;99.90;;;;;;5077802;28;20477;-61
2022/05/02 08:00:45;;;;;;;13.77;11.83;;;17.90;99.90;;;;;;5078416;28;20909;-60
2022/05/02 08:03:19;;;;;;;13.80;12.40;;;18.00;99.90;;;;;;5078157;28;20469;-60
2022/05/02 08:06:11;;;;;;;13.47;12.13;;;17.90;99.90;;;;;;5079281;28;20454;-60
2022/05/02 08:08:49;;;;;;;12.83;10.60;;;18.10;99.90;;;;;;5077257;28;20503;-61
2022/05/02 08:11:31;;;;;;;12.97;11.67;;;17.90;99.90;;;;;;5077735;28;20495;-60
2022/05/02 08:14:08;;;;;;;12.73;11.67;;;17.80;99.90;;;;;;5078614;28;20489;-60
2022/05/02 08:16:51;;;;;;;14.00;12.80;;;18.40;99.90;;;;;;5078683;28;20461;-61
2022/05/02 08:19:37;;;;;;;12.37;11.40;;;18.00;99.90;;;;;;5078314;28;20453;-60
2022/05/02 08:28:04;;;;;;;13.37;12.07;;;19.20;99.90;;;;;;5077394;28;20730;-60
2022/05/02 08:30:45;;;;;;;13.37;12.17;;;19.50;99.90;;;;;;5078416;28;20587;-61
2022/05/02 08:33:26;;;;;;;12.97;11.60;;;18.60;99.90;;;;;;5077879;28;20845;-61
2022/05/02 08:36:03;;;;;;;13.70;12.30;;;18.60;99.90;;;;;;5078252;28;20483;-61
2022/05/02 08:38:55;;;;;;;12.23;11.13;;;18.90;99.90;;;;;;5078596;28;20464;-61
2022/05/02 08:41:40;;;;;;;13.30;12.10;;;18.50;99.90;;;;;;5078499;28;20495;-61
2022/05/02 08:44:39;;;;;;;13.77;12.53;;;18.70;99.90;;;;;;5077807;28;20501;-61
2022/05/02 08:47:59;;;;;;;11.87;10.87;;;19.40;99.90;;;;;;5077926;28;20457;-61
2022/05/02 08:50:46;;;;;;;12.80;11.30;;;18.40;99.90;;;;;;5077934;28;20525;-61
2022/05/02 08:54:00;;;;;;;13.33;12.27;;;18.50;99.90;;;;;;5076955;28;20479;-61
2022/05/02 08:57:08;;;;;;;12.13;10.93;;;18.50;99.90;;;;;;5077056;28;20512;-61
2022/05/02 09:00:09;;;;;;;13.60;12.40;;;18.90;99.90;;;;;;5066283;28;20461;-61
2022/05/02 09:03:21;;;;;;;14.80;11.60;;;19.30;99.90;;;;;;4977209;28;20468;-61
2022/05/02 09:06:18;;;;;;;13.30;12.13;;;18.80;99.90;;;;;;5058750;28;20458;-61
2022/05/02 09:09:23;;;;;;;13.00;11.80;;;18.20;99.90;;;;;;5071185;28;20889;-61
2022/05/02 09:12:27;;;;;;;13.60;12.17;;;17.90;99.90;;;;;;5077673;28;20468;-61
2022/05/02 09:15:15;;;;;;;13.27;12.13;;;18.30;99.90;;;;;;5076913;28;20516;-61
2022/05/02 09:18:29;;;;;;;14.10;12.53;;;18.30;99.90;;;;;;5076231;28;20467;-61
2022/05/02 09:20:59;;;;;;;15.23;12.70;;;18.90;99.90;;;;;;5076182;28;20507;-61
2022/05/02 09:24:11;;;;;;;12.60;11.30;;;19.80;99.90;;;;;;5074583;28;20481;-61
2022/05/02 09:27:15;;;;;;;12.50;11.30;;;20.80;99.90;;;;;;5053278;28;20788;-62
2022/05/02 09:30:12;;;;;;;12.70;11.43;;;21.00;99.90;;;;;;4976321;28;20493;-61
2022/05/02 09:33:27;;;;;;;12.90;11.60;;;21.60;99.90;;;;;;5073112;28;20476;-61
2022/05/02 09:35:59;;;;;;;12.60;11.33;;;21.00;99.90;;;;;;5049069;28;20474;-60
2022/05/02 09:38:29;;;;;;;12.30;11.20;;;20.70;99.90;;;;;;5075135;28;20503;-61
2022/05/02 09:41:06;;;;;;;13.13;11.93;;;20.90;99.90;;;;;;5074952;28;20569;-61
2022/05/02 09:50:14;;;;;;;12.77;11.67;;;20.90;99.90;;;;;;5071139;28;20488;-61
2022/05/02 09:52:59;;;;;;;12.47;11.17;;;20.60;99.90;;;;;;5072804;28;20473;-61
2022/05/02 09:58:38;;;;;;;14.70;10.73;;;21.30;99.90;;;;;;5056898;28;20445;-61
2022/05/02 10:01:13;;;;;;;13.57;12.37;;;21.10;99.90;;;;;;5072606;28;20509;-61
2022/05/02 10:04:03;;;;;;;11.30;10.40;;;21.30;99.90;;;;;;5076466;28;20468;-61
2022/05/02 10:06:42;;;;;;;12.63;11.60;;;21.40;99.90;;;;;;5076309;28;20916;-60
2022/05/02 10:09:22;;;;;;;12.83;11.63;;;21.30;99.90;;;;;;5074607;28;20489;-60
2022/05/02 10:12:12;;;;;;;12.97;11.83;;;21.60;99.90;;;;;;5074347;28;20476;-61
2022/05/02 10:14:58;;;;;;;12.13;11.00;;;21.90;99.90;;;;;;5075923;28;20489;-61
2022/05/02 10:18:02;;;;;;;12.00;10.90;;;21.80;99.90;;;;;;5074768;28;20499;-61
2022/05/02 10:20:45;;;;;;;15.60;11.67;;;22.70;99.90;;;;;;5028862;28;20546;-61
2022/05/02 10:23:33;;;;;;;11.13;10.20;;;22.90;99.90;;;;;;5071644;28;20890;-61
2022/05/02 10:26:08;;;;;;;11.77;10.83;;;22.60;99.90;;;;;;5072753;28;20457;-61
2022/05/02 10:29:20;;;;;;;12.17;11.17;;;22.70;99.90;;;;;;5073247;28;20550;-61
2022/05/02 10:31:51;;;;;;;13.03;11.73;;;22.80;99.90;;;;;;5071485;28;20475;-61
2022/05/02 10:34:20;;;;;;;11.10;10.23;;;21.50;99.90;;;;;;5074611;28;20449;-61
2022/05/02 10:36:51;;;;;;;12.13;10.50;;;21.10;99.90;;;;;;5073224;28;20489;-61
2022/05/02 10:39:38;;;;;;;13.00;12.00;;;21.70;99.90;;;;;;5072446;28;20541;-61
2022/05/02 10:42:17;;;;;;;12.53;11.43;;;22.50;99.90;;;;;;5072830;28;20555;-61
2022/05/02 10:44:52;;;;;;;11.13;10.27;;;22.40;99.90;;;;;;5067540;28;20464;-61
2022/05/02 10:47:26;;;;;;;11.60;10.60;;;22.40;99.90;;;;;;5069742;28;20465;-61
2022/05/02 10:50:08;;;;;;;13.20;12.10;;;21.70;99.90;;;;;;5068216;28;20628;-61
2022/05/02 10:52:51;;;;;;;12.77;11.53;;;22.20;99.90;;;;;;5071738;28;20984;-61
2022/05/02 10:55:25;;;;;;;12.87;11.67;;;23.00;99.90;;;;;;5070517;28;20534;-61
2022/05/02 10:58:01;;;;;;;11.93;11.00;;;23.10;99.90;;;;;;5070776;28;20847;-61
2022/05/02 11:00:33;;;;;;;14.20;12.80;;;23.70;99.90;;;;;;5071361;28;20541;-61
2022/05/02 11:03:26;;;;;;;12.83;11.83;;;22.80;99.90;;;;;;5073040;28;20461;-61
2022/05/02 11:06:10;;;;;;;13.57;12.37;;;21.10;99.90;;;;;;5075265;28;20449;-61
2022/05/02 11:08:47;;;;;;;13.00;11.90;;;20.90;99.90;;;;;;5072252;28;20482;-61
2022/05/02 11:11:24;;;;;;;13.67;11.70;;;21.40;99.90;;;;;;5071302;28;20539;-61
2022/05/02 11:13:58;;;;;;;12.60;11.60;;;22.40;99.90;;;;;;5071967;28;20485;-61
2022/05/02 11:16:30;;;;;;;13.27;12.07;;;22.80;99.90;;;;;;5074435;28;20797;-61
2022/05/02 11:22:14;;;;;;;18.00;12.80;;;22.00;99.90;;;;;;5073176;28;20464;-60
2022/05/02 11:24:47;;;;;;;12.80;11.63;;;22.40;99.90;;;;;;5078029;28;20461;-59
2022/05/02 11:27:55;;;;;;;12.03;10.80;;;22.70;99.90;;;;;;5074485;28;20474;-61
2022/05/02 11:30:31;;;;;;;12.50;11.33;;;22.10;99.90;;;;;;5070121;28;20534;-61
2022/05/02 11:33:17;;;;;;;12.90;10.90;;;20.70;99.90;;;;;;5075146;28;20500;-60
2022/05/02 11:35:49;;;;;;;12.50;11.40;;;22.10;99.90;;;;;;5069672;28;20512;-60
2022/05/02 11:38:32;;;;;;;12.33;11.03;;;23.00;99.90;;;;;;5074350;28;20770;-61
2022/05/02 11:41:01;;;;;;;12.70;11.40;;;23.70;99.90;;;;;;5077600;28;20469;-60
2022/05/02 11:43:32;;;;;;;12.07;10.87;;;23.90;99.90;;;;;;5077813;28;20556;-60
2022/05/02 11:46:10;;;;;;;12.80;11.67;;;24.40;99.90;;;;;;5074637;28;20505;-61
2022/05/02 11:49:14;;;;;;;13.30;11.93;;;24.70;99.90;;;;;;5077475;28;20478;-60
2022/05/02 11:51:46;;;;;;;13.03;11.30;;;25.00;99.90;;;;;;4978282;28;20524;-60
2022/05/02 11:54:31;;;;;;;11.57;10.47;;;24.90;99.90;;;;;;5062604;28;20788;-59
2022/05/02 11:57:07;;;;;;;13.90;12.03;;;24.60;99.90;;;;;;5077059;28;20863;-60
2022/05/02 12:00:03;;;;;;;10.50;9.33;;;24.40;99.90;;;;;;5069260;28;20559;-60
2022/05/02 12:02:55;;;;;;;12.87;11.73;;;24.70;99.90;;;;;;5079256;28;20458;-61
2022/05/02 12:05:30;;;;;;;17.00;10.77;;;25.10;99.90;;;;;;5077038;28;20560;-61
2022/05/02 12:08:11;;;;;;;12.87;11.83;;;25.10;99.90;;;;;;5072088;28;20465;-62
2022/05/02 12:10:43;;;;;;;14.43;13.33;;;23.50;99.90;;;;;;5075512;28;20492;-61
2022/05/02 12:13:12;;;;;;;15.83;14.23;;;22.50;99.90;;;;;;5075027;28;21134;-61
2022/05/02 12:16:04;;;;;;;14.33;13.13;;;21.30;99.90;;;;;;5073057;28;20472;-61
2022/05/02 12:18:46;;;;;;;12.83;11.73;;;21.10;99.90;;;;;;5074115;28;20465;-61
2022/05/02 12:21:22;;;;;;;13.23;12.07;;;21.90;99.90;;;;;;5075364;28;20905;-60
2022/05/02 12:23:53;;;;;;;13.57;12.47;;;22.20;99.90;;;;;;5074260;28;20477;-60
2022/05/02 12:26:22;;;;;;;13.70;12.60;;;21.80;99.90;;;;;;5075920;28;20507;-61
2022/05/02 12:28:51;;;;;;;14.80;13.47;;;20.90;99.90;;;;;;5077476;28;20942;-60
2022/05/02 12:31:26;;;;;;;16.17;14.77;;;21.20;99.90;;;;;;5075693;28;20485;-60
2022/05/02 12:33:58;;;;;;;14.43;13.23;;;21.00;99.90;;;;;;5078251;28;20768;-61
2022/05/02 12:36:39;;;;;;;15.03;13.53;;;20.40;99.90;;;;;;5072337;28;20556;-61
2022/05/02 12:39:10;;;;;;;15.17;13.67;;;20.40;99.90;;;;;;5074699;28;20461;-60
2022/05/02 12:41:46;;;;;;;17.83;14.17;;;20.00;99.90;;;;;;5076899;28;20472;-60
2022/05/02 12:44:14;;;;;;;15.63;14.10;;;20.20;99.90;;;;;;5078651;28;20499;-60
2022/05/02 12:46:45;;;;;;;14.40;12.77;;;20.00;99.90;;;;;;5076832;28;20905;-60
2022/05/02 12:49:22;;;;;;;14.40;13.10;;;19.90;99.90;;;;;;5076496;28;20490;-60
2022/05/02 12:51:54;;;;;;;14.90;13.70;;;20.20;99.90;;;;;;5075019;28;20899;-60
2022/05/02 12:54:25;;;;;;;14.57;13.17;;;20.70;99.90;;;;;;5076988;28;20489;-61
2022/05/02 13:02:44;;;;;;;14.60;13.07;;;21.80;99.90;;;;;;5079360;28;20906;-61
2022/05/02 13:05:17;;;;;;;15.93;14.40;;;21.60;99.90;;;;;;5078085;28;20519;-61
2022/05/02 13:07:46;;;;;;;15.40;13.77;;;21.60;99.90;;;;;;5076308;28;20589;-61
2022/05/02 13:10:22;;;;;;;14.40;13.20;;;22.70;99.90;;;;;;5077371;28;20488;-61
2022/05/02 13:13:05;;;;;;;14.20;12.87;;;22.60;99.90;;;;;;5074611;28;20457;-61
2022/05/02 13:19:45;;;;;;;14.13;12.77;;;22.70;99.90;;;;;;5073375;28;20479;-61
2022/05/02 13:22:19;;;;;;;15.53;14.20;;;23.40;99.90;;;;;;5073502;28;20465;-61
2022/05/02 13:24:55;;;;;;;15.03;13.63;;;23.40;99.90;;;;;;5076083;28;20465;-61
2022/05/02 13:27:32;;;;;;;14.07;12.87;;;22.20;99.90;;;;;;5075899;28;20558;-60
2022/05/02 13:30:04;;;;;;;13.63;12.63;;;22.40;99.90;;;;;;5075332;28;20469;-60
2022/05/02 13:32:41;;;;;;;13.77;12.57;;;21.90;99.90;;;;;;5068274;28;20458;-60
2022/05/02 13:35:22;;;;;;;15.37;14.07;;;21.80;99.90;;;;;;5074979;28;20979;-60
2022/05/02 13:37:55;;;;;;;13.03;11.77;;;22.40;99.90;;;;;;5076322;28;20475;-60
2022/05/02 13:40:33;;;;;;;13.80;12.50;;;22.00;99.90;;;;;;5076292;28;20557;-60
2022/05/02 13:43:11;;;;;;;15.00;13.50;;;21.40;99.90;;;;;;5077076;28;20461;-60
2022/05/02 13:45:43;;;;;;;15.00;13.80;;;21.10;99.90;;;;;;5071192;28;20929;-60
2022/05/02 13:48:20;;;;;;;14.07;12.67;;;20.90;99.90;;;;;;5071313;28;20466;-61
2022/05/02 13:51:01;;;;;;;12.53;11.47;;;21.10;99.90;;;;;;5071159;28;20538;-60
2022/05/02 13:53:37;;;;;;;14.57;12.27;;;20.70;99.90;;;;;;5074466;28;20890;-61
2022/05/02 13:56:13;;;;;;;14.33;12.87;;;20.20;99.90;;;;;;5069905;28;20472;-60
2022/05/02 13:59:02;;;;;;;13.07;11.77;;;19.70;99.90;;;;;;5071250;28;20457;-59
2022/05/02 14:01:42;;;;;;;13.57;12.27;;;19.30;99.90;;;;;;5058558;28;20544;-60
2022/05/02 14:04:19;;;;;;;14.50;13.10;;;19.40;99.90;;;;;;5074673;28;20461;-60
2022/05/02 14:09:43;;;;;;;14.20;12.90;;;20.00;99.90;;;;;;5072681;28;20437;-59